Time;durP1;ratioP1;P1;durP2;ratioP2;P2;SDS_P1;SDS_P2;PMS_P1;PMS_P2;Temp;Humidity;BMP_temperature;BMP_pressure;BME280_temperature;BME280_humidity;BME280_pressure;Samples;Min_cycle;Max_cycle;Signal;HPM_P1;HPM_P2
2021/04/11 00:00:43;;;;;;;18.95;9.45;;;;;;;3.58;51.11;97721.55;1677367;85;21270;-76
2021/04/11 00:03:20;;;;;;;18.15;10.20;;;;;;;3.53;51.33;97733.08;1678447;83;21144;-77
2021/04/11 00:05:49;;;;;;;18.55;10.20;;;;;;;3.50;51.01;97735.80;1697769;84;21173;-77
2021/04/11 00:08:19;;;;;;;19.65;10.98;;;;;;;3.44;51.12;97730.37;1697967;84;21268;-77
2021/04/11 00:10:57;;;;;;;19.32;10.05;;;;;;;3.41;51.80;97731.83;1698254;84;21167;-76
2021/04/11 00:13:32;;;;;;;19.95;10.95;;;;;;;3.36;52.37;97732.02;1697957;84;21269;-77
2021/04/11 00:16:01;;;;;;;16.12;10.53;;;;;;;3.34;52.21;97741.65;1698224;84;21147;-76
2021/04/11 00:18:28;;;;;;;15.68;8.33;;;;;;;3.31;52.30;97742.23;1697885;84;21195;-77
2021/04/11 00:20:57;;;;;;;14.30;8.48;;;;;;;3.30;52.02;97741.84;1697696;84;21751;-76
2021/04/11 00:23:27;;;;;;;15.25;8.60;;;;;;;3.28;52.03;97743.21;1697770;84;22009;-77
2021/04/11 00:25:54;;;;;;;12.00;8.53;;;;;;;3.28;52.10;97748.42;1697974;84;21289;-78
2021/04/11 00:28:22;;;;;;;13.58;8.18;;;;;;;3.26;52.29;97745.86;1697685;84;21190;-77
2021/04/11 00:30:50;;;;;;;13.80;7.42;;;;;;;3.25;52.33;97744.63;1697678;84;21142;-77
2021/04/11 00:33:32;;;;;;;18.95;8.48;;;;;;;3.23;52.62;97748.61;1697893;84;21191;-77
2021/04/11 00:36:04;;;;;;;16.93;7.60;;;;;;;3.21;52.84;97749.12;1697539;83;21297;-77
2021/04/11 00:38:32;;;;;;;13.80;8.18;;;;;;;3.18;53.67;97741.41;1697408;84;21517;-77
2021/04/11 00:41:35;;;;;;;13.60;6.97;;;;;;;3.17;53.48;97741.48;1697569;84;21695;-77
2021/04/11 00:44:20;;;;;;;17.05;8.05;;;;;;;3.21;53.52;97745.21;1858736;77;23575;-78
2021/04/11 00:46:56;;;;;;;15.08;7.40;;;;;;;3.12;53.92;97745.11;1830846;78;21221;-77
2021/04/11 00:49:46;;;;;;;12.05;7.00;;;;;;;3.10;53.17;97746.95;1830754;78;21287;-77
2021/04/11 00:52:17;;;;;;;15.03;7.37;;;;;;;3.09;52.89;97746.98;1830627;78;21288;-77
2021/04/11 00:54:45;;;;;;;16.12;8.30;;;;;;;3.08;52.73;97743.99;1830877;78;21126;-78
2021/04/11 00:57:15;;;;;;;13.65;8.43;;;;;;;3.06;52.83;97741.45;1830623;78;21267;-77
2021/04/11 00:59:42;;;;;;;16.23;7.10;;;;;;;3.03;53.00;97739.43;1798616;78;21117;-77
2021/04/11 01:02:10;;;;;;;15.68;7.85;;;;;;;3.00;53.17;97740.84;1831182;78;21133;-78
2021/04/11 01:04:37;;;;;;;11.65;7.30;;;;;;;2.96;53.02;97732.31;1830712;78;21571;-77
2021/04/11 01:07:10;;;;;;;16.48;9.13;;;;;;;2.94;53.12;97732.81;1830818;78;21248;-77
2021/04/11 01:09:45;;;;;;;15.45;7.65;;;;;;;2.93;53.21;97738.49;1830240;78;21310;-77
2021/04/11 01:12:18;;;;;;;13.00;7.50;;;;;;;2.89;53.20;97726.48;1830827;78;21180;-78
2021/04/11 01:14:48;;;;;;;14.95;7.65;;;;;;;2.89;53.45;97722.58;1830783;78;21708;-77
2021/04/11 01:17:21;;;;;;;17.23;7.92;;;;;;;2.90;53.58;97724.74;1831008;78;21122;-77
2021/04/11 01:19:52;;;;;;;12.68;7.45;;;;;;;2.87;53.60;97720.52;1830657;78;21113;-77
2021/04/11 01:22:44;;;;;;;14.20;7.67;;;;;;;2.85;53.74;97717.55;1830334;78;21638;-78
2021/04/11 01:25:20;;;;;;;13.22;7.90;;;;;;;2.79;53.85;97710.38;1830910;78;21299;-78
2021/04/11 01:27:49;;;;;;;12.63;6.65;;;;;;;2.76;53.74;97706.59;1830783;78;21303;-78
2021/04/11 01:30:29;;;;;;;13.22;7.33;;;;;;;2.74;54.27;97701.89;1831022;78;21287;-79
2021/04/11 01:32:58;;;;;;;15.30;7.10;;;;;;;2.74;53.88;97697.98;1830663;78;21295;-77
2021/04/11 01:35:28;;;;;;;15.30;8.58;;;;;;;2.73;54.57;97696.31;1795098;79;21195;-77
2021/04/11 01:37:58;;;;;;;17.85;6.83;;;;;;;2.67;54.18;97692.63;1821609;79;21135;-77
2021/04/11 01:41:21;;;;;;;10.98;6.80;;;;;;;2.63;54.13;97689.30;1754685;82;21155;-76
2021/04/11 01:43:52;;;;;;;10.82;6.40;;;;;;;2.62;54.18;97686.77;1760790;81;21201;-77
2021/04/11 01:46:23;;;;;;;12.23;6.42;;;;;;;2.60;54.23;97693.78;1758206;82;21109;-77
2021/04/11 01:48:53;;;;;;;14.87;7.70;;;;;;;2.58;54.38;97695.59;1732860;82;21160;-77
2021/04/11 01:51:35;;;;;;;13.25;7.03;;;;;;;2.56;54.39;97692.19;1758368;82;21149;-77
2021/04/11 01:54:09;;;;;;;15.55;8.35;;;;;;;2.55;54.61;97699.63;1758222;81;21121;-76
2021/04/11 01:56:45;;;;;;;10.30;6.80;;;;;;;2.53;54.73;97703.57;1756151;82;21164;-78
2021/04/11 01:59:17;;;;;;;12.68;6.67;;;;;;;2.50;54.84;97704.54;1757818;82;21156;-78
2021/04/11 02:01:50;;;;;;;11.33;6.60;;;;;;;2.46;54.75;97710.75;1756271;82;21116;-76
2021/04/11 02:04:19;;;;;;;12.23;6.10;;;;;;;2.45;55.22;97713.42;1734773;82;21595;-75
2021/04/11 02:06:51;;;;;;;10.08;5.92;;;;;;;2.41;55.12;97719.67;1751040;82;21120;-77
2021/04/11 02:09:31;;;;;;;10.72;5.97;;;;;;;2.37;55.15;97717.60;1755304;81;21620;-76
2021/04/11 02:12:16;;;;;;;13.87;8.37;;;;;;;2.41;56.04;97720.50;1832675;76;28180;-77
2021/04/11 02:14:46;;;;;;;16.12;7.83;;;;;;;2.49;56.29;97719.76;1860796;77;21266;-77
2021/04/11 02:17:16;;;;;;;17.32;8.08;;;;;;;2.45;55.93;97723.40;1822333;79;21147;-75
2021/04/11 02:19:45;;;;;;;12.90;6.80;;;;;;;2.44;57.25;97719.53;1788062;79;21120;-76
2021/04/11 02:22:28;;;;;;;13.53;7.95;;;;;;;2.44;55.97;97717.80;1765754;79;21150;-77
2021/04/11 02:24:59;;;;;;;12.80;6.78;;;;;;;2.44;55.65;97713.89;1802747;79;21128;-76
2021/04/11 02:27:28;;;;;;;11.22;5.78;;;;;;;2.43;55.68;97715.23;1772293;79;21123;-77
2021/04/11 02:29:56;;;;;;;14.65;7.00;;;;;;;2.37;55.32;97709.80;1788133;79;21135;-76
2021/04/11 02:32:23;;;;;;;12.85;7.12;;;;;;;2.33;55.53;97706.47;1798261;79;21156;-76
2021/04/11 02:34:52;;;;;;;11.15;7.03;;;;;;;2.33;55.53;97709.07;1772224;80;21172;-77
2021/04/11 02:37:29;;;;;;;14.07;6.28;;;;;;;2.33;55.80;97712.14;1771169;81;21113;-77
2021/04/11 02:39:59;;;;;;;13.43;7.10;;;;;;;2.27;55.63;97704.10;1778745;79;21123;-76
2021/04/11 02:42:32;;;;;;;11.88;7.83;;;;;;;2.27;55.71;97704.57;1798610;79;21125;-77
2021/04/11 02:45:14;;;;;;;20.00;8.33;;;;;;;2.27;55.83;97706.70;1802338;79;21564;-77
2021/04/11 02:47:45;;;;;;;13.58;7.40;;;;;;;2.27;55.95;97708.47;1803967;79;21143;-77
2021/04/11 02:50:15;;;;;;;14.53;8.23;;;;;;;2.28;56.03;97714.91;1768350;79;21171;-77
2021/04/11 02:52:54;;;;;;;12.13;8.15;;;;;;;2.28;56.01;97710.14;1800911;79;21127;-77
2021/04/11 02:55:35;;;;;;;13.65;9.13;;;;;;;2.33;56.71;97711.67;1766233;79;28339;-78
2021/04/11 02:58:03;;;;;;;18.05;7.53;;;;;;;2.41;56.69;97711.39;1755040;82;21581;-77
2021/04/11 03:00:36;;;;;;;16.27;7.95;;;;;;;2.33;56.40;97710.38;1753311;81;21676;-78
2021/04/11 03:03:05;;;;;;;13.70;7.95;;;;;;;2.29;56.64;97718.34;1746097;82;21157;-76
2021/04/11 03:05:33;;;;;;;13.35;7.00;;;;;;;2.26;56.79;97717.17;1750258;82;21160;-78
2021/04/11 03:08:05;;;;;;;12.70;6.60;;;;;;;2.20;56.60;97714.34;1725115;83;21184;-77
2021/04/11 03:10:56;;;;;;;12.82;6.87;;;;;;;2.15;56.58;97718.41;1725044;83;21136;-77
2021/04/11 03:13:25;;;;;;;12.28;6.78;;;;;;;2.12;56.93;97713.31;1726526;82;21305;-78
2021/04/11 03:15:56;;;;;;;12.55;5.97;;;;;;;2.09;56.75;97721.22;1724910;83;21696;-77
2021/04/11 03:18:25;;;;;;;14.18;5.83;;;;;;;2.07;57.08;97729.55;1724942;82;21159;-76
2021/04/11 03:20:57;;;;;;;10.72;5.45;;;;;;;2.00;57.00;97730.22;1751255;82;21557;-77
2021/04/11 03:23:26;;;;;;;9.73;5.62;;;;;;;1.98;57.26;97731.18;1753586;82;21550;-77
2021/04/11 03:26:03;;;;;;;8.65;4.70;;;;;;;1.92;57.85;97730.94;1724388;83;21396;-78
2021/04/11 03:28:37;;;;;;;12.78;5.58;;;;;;;1.90;57.50;97734.50;1725213;83;21298;-75
2021/04/11 03:31:21;;;;;;;9.63;5.08;;;;;;;1.85;57.00;97735.50;1753945;82;21132;-76
2021/04/11 03:33:55;;;;;;;11.73;5.37;;;;;;;1.85;57.10;97747.66;1754154;81;21586;-76
2021/04/11 03:36:26;;;;;;;12.20;6.10;;;;;;;1.84;57.37;97746.80;1724879;82;21141;-77
2021/04/11 03:38:56;;;;;;;9.13;5.70;;;;;;;1.84;57.29;97748.09;1724773;82;21569;-77
2021/04/11 03:41:34;;;;;;;8.43;5.08;;;;;;;1.84;56.89;97749.40;1724803;82;21569;-77
2021/04/11 03:44:11;;;;;;;10.10;5.65;;;;;;;1.84;57.36;97756.36;1729124;82;21619;-75
2021/04/11 03:47:09;;;;;;;12.85;5.92;;;;;;;1.90;58.26;97752.23;1819090;79;23062;-78
2021/04/11 03:49:53;;;;;;;11.80;5.80;;;;;;;1.86;57.62;97756.70;1797910;78;21107;-77
2021/04/11 03:52:42;;;;;;;10.75;5.95;;;;;;;1.91;57.63;97760.87;1802191;79;21128;-77
2021/04/11 03:55:17;;;;;;;9.55;5.72;;;;;;;1.90;57.63;97759.20;1798970;78;21116;-78
2021/04/11 03:57:59;;;;;;;10.95;6.03;;;;;;;1.93;57.54;97755.17;1796239;80;21146;-78
2021/04/11 04:00:39;;;;;;;11.28;5.53;;;;;;;1.93;57.50;97756.48;1795716;80;21244;-78
2021/04/11 04:03:12;;;;;;;8.23;4.53;;;;;;;1.95;57.67;97755.52;1797134;80;21131;-77
2021/04/11 04:05:41;;;;;;;8.13;4.85;;;;;;;1.98;57.73;97755.42;1796393;80;21159;-77
2021/04/11 04:08:10;;;;;;;14.73;7.53;;;;;;;2.03;57.71;97753.95;1795291;80;21116;-78
2021/04/11 04:10:54;;;;;;;10.90;6.85;;;;;;;2.04;57.28;97758.26;1768711;78;21112;-77
2021/04/11 04:13:30;;;;;;;16.30;8.73;;;;;;;2.05;57.30;97770.36;1803924;78;21245;-77
2021/04/11 04:16:21;;;;;;;12.73;7.67;;;;;;;2.09;57.43;97759.39;1771672;80;21601;-77
2021/04/11 04:19:47;;;;;;;20.43;10.08;;;;;;;2.22;58.38;97765.00;1820718;77;23018;-78
2021/04/11 04:22:54;;;;;;;20.60;9.68;;;;;;;2.17;57.81;97768.64;1801582;79;21148;-76
2021/04/11 04:25:31;;;;;;;20.85;10.20;;;;;;;2.22;58.10;97772.81;1761922;80;21723;-77
2021/04/11 04:28:48;;;;;;;14.95;8.85;;;;;;;2.25;57.85;97774.02;1705961;84;21207;-78
2021/04/11 04:31:36;;;;;;;18.23;10.20;;;;;;;2.29;57.57;97778.19;1747662;80;21145;-78
2021/04/11 04:34:24;;;;;;;18.48;9.80;;;;;;;2.34;57.33;97781.48;1781259;79;21114;-77
2021/04/11 04:37:13;;;;;;;17.23;9.68;;;;;;;2.44;57.33;97788.05;1794528;79;21260;-77
2021/04/11 04:40:02;;;;;;;19.57;10.08;;;;;;;2.56;57.35;97788.05;1769599;81;21317;-78
2021/04/11 04:42:54;;;;;;;21.75;10.45;;;;;;;2.70;57.33;97784.94;1777354;80;21100;-78
2021/04/11 04:45:41;;;;;;;17.98;9.20;;;;;;;2.95;57.62;97790.07;1763948;81;21143;-79
2021/04/11 04:48:27;;;;;;;21.73;9.90;;;;;;;3.32;57.38;97796.89;1764464;81;21620;-77
2021/04/11 04:51:25;;;;;;;20.80;10.75;;;;;;;3.70;56.90;97797.09;1795496;80;21163;-79
2021/04/11 04:54:27;;;;;;;19.35;9.20;;;;;;;4.20;56.48;97805.47;1692981;85;21325;-77
2021/04/11 04:57:16;;;;;;;17.52;9.05;;;;;;;4.72;55.60;97800.15;1700034;84;21176;-77
2021/04/11 05:00:14;;;;;;;19.75;7.90;;;;;;;5.30;54.64;97801.81;1741232;82;21275;-77
2021/04/11 05:03:04;;;;;;;14.65;8.38;;;;;;;5.79;53.94;97795.98;1740646;82;21192;-77
2021/04/11 05:05:37;;;;;;;21.97;7.95;;;;;;;6.35;52.46;97798.45;1743443;82;21148;-77
2021/04/11 05:08:22;;;;;;;13.78;8.25;;;;;;;6.83;51.61;97795.92;1739200;82;21147;-77
2021/04/11 05:11:05;;;;;;;15.00;8.20;;;;;;;7.23;50.97;97798.14;1747457;82;21249;-76
2021/04/11 05:13:39;;;;;;;17.80;8.33;;;;;;;7.66;50.17;97798.33;1756411;82;21149;-76
2021/04/11 05:16:14;;;;;;;17.02;7.70;;;;;;;8.14;48.91;97796.89;1699414;83;21150;-77
2021/04/11 05:18:58;;;;;;;15.28;7.58;;;;;;;8.61;47.62;97798.93;1729101;82;21694;-78
2021/04/11 05:21:33;;;;;;;18.17;7.35;;;;;;;8.99;47.59;97793.56;1738950;82;21262;-78
2021/04/11 05:24:24;;;;;;;16.80;8.45;;;;;;;9.40;47.48;97789.25;1731436;82;21293;-78
2021/04/11 05:26:58;;;;;;;13.38;7.00;;;;;;;9.83;46.79;97784.66;1757564;81;21275;-77
2021/04/11 05:30:08;;;;;;;14.03;7.73;;;;;;;10.41;46.68;97788.75;1756348;82;21131;-77
2021/04/11 05:32:36;;;;;;;12.40;6.78;;;;;;;10.89;42.62;97792.02;1743776;82;21166;-76
2021/04/11 05:35:06;;;;;;;14.63;7.85;;;;;;;11.06;44.58;97790.35;1741993;81;21607;-78
2021/04/11 05:38:03;;;;;;;11.85;7.17;;;;;;;11.02;43.39;97784.08;1726535;83;21164;-77
2021/04/11 05:40:35;;;;;;;13.62;7.85;;;;;;;11.11;43.10;97779.47;1726060;82;21550;-77
2021/04/11 05:43:11;;;;;;;15.25;7.67;;;;;;;11.30;42.90;97782.10;1725673;82;21113;-77
2021/04/11 05:46:10;;;;;;;13.15;7.53;;;;;;;11.42;42.26;97781.22;1725512;83;21151;-77
2021/04/11 05:48:46;;;;;;;15.38;8.65;;;;;;;11.67;42.57;97786.88;1725816;82;21144;-77
2021/04/11 05:51:37;;;;;;;17.20;8.70;;;;;;;11.90;42.35;97789.59;1706361;83;21148;-74
2021/04/11 05:54:28;;;;;;;14.83;9.20;;;;;;;12.12;41.77;97794.12;1726544;82;21794;-77
2021/04/11 05:57:06;;;;;;;16.30;9.03;;;;;;;12.37;40.92;97792.74;1726695;83;21151;-77
2021/04/11 05:59:45;;;;;;;12.30;8.43;;;;;;;12.59;40.90;97790.61;1715456;83;21605;-78
2021/04/11 06:02:40;;;;;;;14.93;8.05;;;;;;;12.76;39.56;97790.63;1710665;83;21211;-77
2021/04/11 06:05:15;;;;;;;17.90;9.13;;;;;;;13.11;39.96;97786.52;1710983;83;21152;-76
2021/04/11 06:08:06;;;;;;;13.53;8.43;;;;;;;13.50;39.29;97786.60;1706581;83;21683;-80
2021/04/11 06:10:57;;;;;;;13.62;7.28;;;;;;;13.74;38.00;97792.53;1709094;84;21219;-79
2021/04/11 06:13:35;;;;;;;16.80;9.55;;;;;;;13.87;37.53;97775.63;1705836;84;21575;-78
2021/04/11 06:16:14;;;;;;;20.68;8.78;;;;;;;13.77;37.24;97777.36;1709615;84;21133;-77
2021/04/11 06:18:50;;;;;;;17.27;8.78;;;;;;;13.72;36.17;97775.91;1704163;84;21124;-78
2021/04/11 06:21:41;;;;;;;13.15;8.15;;;;;;;13.75;36.00;97780.11;1651409;87;21160;-78
2021/04/11 06:24:34;;;;;;;14.33;9.08;;;;;;;13.76;35.78;97780.97;1681312;85;21156;-77
2021/04/11 06:27:08;;;;;;;13.18;8.15;;;;;;;13.57;35.21;97779.83;1674040;85;21191;-78
2021/04/11 06:30:07;;;;;;;16.27;8.80;;;;;;;13.36;35.88;97771.80;1678482;85;21550;-77
2021/04/11 06:32:48;;;;;;;13.90;8.95;;;;;;;13.55;35.75;97771.16;1708361;83;21172;-77
2021/04/11 06:35:30;;;;;;;14.15;8.48;;;;;;;13.70;35.23;97765.92;1712025;83;21615;-77
2021/04/11 06:38:00;;;;;;;16.55;9.08;;;;;;;14.09;35.29;97769.38;1714531;82;21192;-78
2021/04/11 06:40:42;;;;;;;23.83;11.57;;;;;;;14.32;34.66;97768.75;1703750;84;21173;-77
2021/04/11 06:43:42;;;;;;;14.25;8.23;;;;;;;14.20;33.85;97771.11;1709838;83;21255;-78
2021/04/11 06:46:35;;;;;;;17.07;12.03;;;;;;;13.92;32.85;97775.24;1710036;83;21141;-79
2021/04/11 06:49:23;;;;;;;16.52;10.63;;;;;;;13.43;34.09;97766.39;1701988;83;21682;-78
2021/04/11 06:52:01;;;;;;;21.10;12.80;;;;;;;13.32;33.76;97773.83;1710178;83;21153;-78
2021/04/11 06:55:02;;;;;;;21.60;11.35;;;;;;;13.08;34.76;97773.53;1724135;82;21598;-77
2021/04/11 06:57:43;;;;;;;24.75;13.03;;;;;;;13.18;34.26;97769.64;1725391;82;21244;-77
2021/04/11 07:00:16;;;;;;;18.60;11.90;;;;;;;13.28;34.84;97777.20;1713640;83;21144;-78
2021/04/11 07:03:16;;;;;;;15.65;10.72;;;;;;;13.59;34.46;97785.35;1756252;81;21242;-77
2021/04/11 07:06:31;;;;;;;18.95;12.98;;;;;;;13.77;33.33;97783.48;1739267;81;21128;-74
2021/04/11 07:09:36;;;;;;;21.37;14.18;;;;;;;13.82;33.90;97789.73;1722905;83;21147;-78
2021/04/11 07:12:11;;;;;;;27.65;15.53;;;;;;;14.21;33.75;97776.77;1656686;86;21218;-78
2021/04/11 07:15:09;;;;;;;23.67;15.18;;;;;;;14.36;32.44;97774.63;1757869;79;23121;-77
2021/04/11 07:18:13;;;;;;;27.07;15.70;;;;;;;14.08;32.89;97774.78;1726068;82;21159;-77
2021/04/11 07:21:22;;;;;;;15.23;8.85;;;;;;;13.85;33.61;97774.91;1753199;82;21148;-75
2021/04/11 07:24:26;;;;;;;23.80;15.68;;;;;;;14.09;33.68;97783.95;1751040;82;21136;-74
2021/04/11 07:27:23;;;;;;;23.60;14.18;;;;;;;13.99;33.25;97781.21;1724420;82;21144;-77
2021/04/11 07:30:01;;;;;;;22.13;14.55;;;;;;;13.87;32.93;97776.95;1741295;82;21185;-78
2021/04/11 07:32:49;;;;;;;27.13;17.12;;;;;;;13.46;33.71;97783.83;1751702;82;21156;-75
2021/04/11 07:35:31;;;;;;;18.62;10.58;;;;;;;13.44;34.29;97778.67;1736111;82;21555;-79
2021/04/11 07:38:26;;;;;;;28.40;17.67;;;;;;;13.71;34.29;97777.38;1740012;81;21120;-76
2021/04/11 07:41:23;;;;;;;19.50;13.25;;;;;;;14.01;34.64;97771.83;1692521;83;21163;-76
2021/04/11 07:43:54;;;;;;;;;;;;;;;14.06;33.77;97773.09;1702836;84;21166;-75
2021/04/11 07:46:48;;;;;;;24.67;17.17;;;;;;;14.06;33.89;97763.81;1684548;84;20464;-76
2021/04/11 07:49:29;;;;;;;22.25;14.03;;;;;;;13.92;34.02;97774.75;1684410;85;21594;-77
2021/04/11 07:52:49;;;;;;;14.68;8.55;;;;;;;13.82;33.96;97764.09;1673886;84;21198;-75
2021/04/11 07:55:48;;;;;;;24.12;13.88;;;;;;;14.00;34.22;97766.99;1688959;84;21178;-77
2021/04/11 07:58:39;;;;;;;24.80;15.13;;;;;;;14.16;34.39;97759.06;1724730;82;21184;-75
2021/04/11 08:01:37;;;;;;;32.17;17.37;;;;;;;14.42;34.44;97758.69;1631137;87;21144;-78
2021/04/11 08:04:32;;;;;;;21.17;13.13;;;;;;;14.61;34.29;97748.64;1718563;82;21136;-77
2021/04/11 08:07:14;;;;;;;25.10;17.35;;;;;;;14.51;34.08;97757.39;1745594;82;21121;-76
2021/04/11 08:09:53;;;;;;;18.12;12.35;;;;;;;14.42;34.81;97751.55;1743139;82;21576;-75
2021/04/11 08:12:43;;;;;;;16.97;11.80;;;;;;;14.33;34.87;97749.22;1745850;82;21549;-76
2021/04/11 08:15:29;;;;;;;20.68;14.47;;;;;;;14.44;34.94;97756.25;1741195;82;21226;-75
2021/04/11 08:18:40;;;;;;;23.77;13.43;;;;;;;14.52;35.05;97749.80;1744996;82;21148;-77
2021/04/11 08:21:40;;;;;;;25.43;16.10;;;;;;;14.67;34.66;97742.36;1724909;82;21108;-74
2021/04/11 08:24:24;;;;;;;23.47;14.95;;;;;;;14.61;34.87;97736.23;1736268;82;21140;-74
2021/04/11 08:27:03;;;;;;;24.18;14.47;;;;;;;14.99;34.93;97746.64;1741372;82;21136;-76
2021/04/11 08:29:56;;;;;;;18.02;13.18;;;;;;;15.04;34.25;97740.09;1720206;83;21142;-76
2021/04/11 08:32:38;;;;;;;14.30;9.93;;;;;;;15.04;34.17;97741.42;1720490;83;21578;-77
2021/04/11 08:35:37;;;;;;;13.15;8.05;;;;;;;15.04;33.54;97737.44;1645358;82;21193;-77
2021/04/11 08:38:28;;;;;;;16.97;10.72;;;;;;;15.03;33.34;97737.09;1729424;82;21140;-76
2021/04/11 08:41:20;;;;;;;18.30;12.37;;;;;;;15.24;33.87;97731.20;1720629;82;21136;-75
2021/04/11 08:44:23;;;;;;;15.80;9.48;;;;;;;15.63;33.76;97726.91;1711182;82;21569;-78
2021/04/11 08:47:12;;;;;;;17.60;8.50;;;;;;;15.98;31.82;97731.65;1722693;82;21570;-74
2021/04/11 08:49:47;;;;;;;13.20;9.25;;;;;;;16.23;30.00;97728.06;1729705;82;21578;-76
2021/04/11 08:52:44;;;;;;;12.23;7.25;;;;;;;16.20;29.02;97718.52;1745660;82;21590;-78
2021/04/11 08:55:29;;;;;;;16.35;9.38;;;;;;;16.33;28.78;97730.17;1746024;82;21545;-75
2021/04/11 08:58:08;;;;;;;11.08;7.40;;;;;;;16.32;27.12;97708.58;1745539;82;21163;-76
2021/04/11 09:00:53;;;;;;;12.55;7.92;;;;;;;16.28;27.25;97728.95;1730828;82;21180;-74
2021/04/11 09:03:37;;;;;;;21.82;8.88;;;;;;;16.26;27.97;97718.44;1719228;82;21113;-77
2021/04/11 09:06:13;;;;;;;11.53;6.25;;;;;;;16.34;26.96;97719.89;1726449;82;21124;-78
2021/04/11 09:09:04;;;;;;;8.65;5.62;;;;;;;16.51;24.82;97722.80;1738557;82;21570;-76
2021/04/11 09:11:49;;;;;;;8.35;5.50;;;;;;;16.66;26.47;97709.83;1720876;82;21140;-78
2021/04/11 09:14:47;;;;;;;8.98;5.22;;;;;;;16.90;26.78;97706.63;1693999;83;21178;-76
2021/04/11 09:17:38;;;;;;;13.00;6.10;;;;;;;17.17;26.97;97711.61;1696435;84;21232;-77
2021/04/11 09:20:32;;;;;;;15.72;5.75;;;;;;;17.19;25.95;97710.98;1713532;83;21155;-76
2021/04/11 09:23:30;;;;;;;8.53;5.50;;;;;;;17.20;25.82;97702.00;1691926;84;21155;-76
2021/04/11 09:26:06;;;;;;;7.33;3.95;;;;;;;17.14;25.31;97702.61;1683919;84;21109;-75
2021/04/11 09:29:02;;;;;;;7.70;5.50;;;;;;;17.24;25.95;97697.20;1674357;82;21550;-78
2021/04/11 09:32:07;;;;;;;6.65;4.60;;;;;;;17.18;25.41;97695.98;1710559;84;21152;-77
2021/04/11 09:35:03;;;;;;;8.18;5.30;;;;;;;17.11;24.80;97690.44;1717027;82;21120;-76
2021/04/11 09:37:55;;;;;;;7.53;5.05;;;;;;;17.09;25.25;97686.23;1723359;82;21594;-80
2021/04/11 09:40:39;;;;;;;9.18;6.10;;;;;;;17.00;24.14;97696.80;1678256;82;21625;-80
2021/04/11 09:43:52;;;;;;;10.88;6.80;;;;;;;16.83;24.66;97696.23;1730756;82;21534;-78
2021/04/11 09:46:57;;;;;;;11.08;6.83;;;;;;;16.62;24.07;97697.30;1713774;82;21113;-78
2021/04/11 09:50:05;;;;;;;15.75;6.62;;;;;;;16.41;23.62;97692.22;1706248;83;21612;-79
2021/04/11 09:53:10;;;;;;;9.15;6.10;;;;;;;16.26;23.83;97700.33;1819835;77;22608;-77
2021/04/11 09:55:49;;;;;;;12.28;5.85;;;;;;;16.16;24.42;97689.70;1824921;77;21120;-81
2021/04/11 09:58:48;;;;;;;8.60;5.17;;;;;;;16.22;25.39;97688.64;1795317;77;21116;-79
2021/04/11 10:01:56;;;;;;;7.87;5.45;;;;;;;16.31;24.86;97684.28;1798225;77;21105;-80
2021/04/11 10:04:45;;;;;;;8.68;5.92;;;;;;;16.17;24.15;97684.26;1815071;77;21136;-79
2021/04/11 10:08:05;;;;;;;10.48;5.70;;;;;;;15.89;23.63;97642.98;1802334;78;21202;-78
2021/04/11 10:10:53;;;;;;;9.23;5.65;;;;;;;15.98;23.68;97665.19;1795347;80;21176;-77
2021/04/11 10:13:28;;;;;;;11.43;6.00;;;;;;;16.02;24.01;97660.41;1802399;77;21156;-78
2021/04/11 10:16:20;;;;;;;8.35;3.52;;;;;;;16.11;24.96;97650.24;1801541;77;21125;-78
2021/04/11 10:19:21;;;;;;;10.85;5.67;;;;;;;16.25;24.68;97659.58;1826154;77;21119;-78
2021/04/11 10:22:12;;;;;;;7.20;4.80;;;;;;;16.17;23.78;97657.66;1856814;77;21262;-80
2021/04/11 10:25:06;;;;;;;8.30;5.08;;;;;;;16.22;24.31;97650.58;1759163;80;21106;-78
2021/04/11 10:28:12;;;;;;;10.20;5.42;;;;;;;16.23;24.33;97645.61;1744799;81;21178;-80
2021/04/11 10:30:44;;;;;;;9.03;6.40;;;;;;;16.36;24.46;97646.09;1763867;80;21139;-81
2021/04/11 10:33:43;;;;;;;13.10;5.67;;;;;;;16.37;23.88;97641.64;1764918;81;21257;-78
2021/04/11 10:36:19;;;;;;;12.75;6.15;;;;;;;16.40;24.59;97643.98;1740326;81;21162;-79
2021/04/11 10:39:03;;;;;;;9.93;5.05;;;;;;;16.51;23.82;97638.47;1842820;76;22766;-78
2021/04/11 10:41:56;;;;;;;8.55;4.42;;;;;;;16.56;23.61;97644.69;1777552;78;21101;-79
2021/04/11 10:45:06;;;;;;;12.20;4.85;;;;;;;16.71;24.24;97632.55;1811970;77;21575;-78
2021/04/11 10:47:56;;;;;;;8.13;4.92;;;;;;;16.85;23.96;97633.03;1795484;80;21129;-79
2021/04/11 10:50:47;;;;;;;7.67;5.03;;;;;;;16.98;24.02;97624.20;1822296;78;21121;-79
2021/04/11 10:53:40;;;;;;;9.98;5.55;;;;;;;17.11;23.87;97621.67;1815387;78;21562;-80
2021/04/11 10:56:29;;;;;;;7.67;5.37;;;;;;;17.19;23.00;97616.92;1794789;80;21124;-80
2021/04/11 10:59:39;;;;;;;11.80;5.12;;;;;;;17.39;24.21;97626.91;1798585;77;21132;-76
2021/04/11 11:03:00;;;;;;;8.10;4.92;;;;;;;17.49;23.92;97623.16;1807504;78;21135;-79
2021/04/11 11:05:45;;;;;;;12.05;4.95;;;;;;;17.56;23.58;97627.89;1802448;77;21117;-79
2021/04/11 11:08:48;;;;;;;7.10;4.78;;;;;;;17.40;23.47;97628.59;1810451;77;21125;-79
2021/04/11 11:11:37;;;;;;;8.78;5.60;;;;;;;17.41;23.07;97629.77;1849500;77;21265;-79
2021/04/11 11:14:27;;;;;;;6.28;4.12;;;;;;;17.43;22.81;97630.96;1805747;78;21137;-80
2021/04/11 11:17:38;;;;;;;10.30;5.67;;;;;;;17.51;23.17;97612.84;1770952;80;21137;-80
2021/04/11 11:20:31;;;;;;;5.85;3.70;;;;;;;17.51;22.35;97609.70;1811565;78;21137;-79
2021/04/11 11:23:43;;;;;;;8.90;4.97;;;;;;;17.56;22.87;97619.91;1816555;78;21574;-79
2021/04/11 11:26:40;;;;;;;10.60;5.37;;;;;;;17.55;22.67;97610.23;1801648;77;21076;-79
2021/04/11 11:29:54;;;;;;;6.12;3.58;;;;;;;17.40;22.46;97608.10;1809810;77;21170;-80
2021/04/11 11:32:50;;;;;;;11.43;4.40;;;;;;;17.38;22.83;97603.92;1795405;80;21134;-79
2021/04/11 11:35:19;;;;;;;6.75;3.72;;;;;;;17.41;21.50;97603.62;1797760;78;21697;-78
2021/04/11 11:38:10;;;;;;;5.45;3.85;;;;;;;17.54;22.71;97597.89;1792465;80;21179;-80
2021/04/11 11:41:15;;;;;;;7.33;3.70;;;;;;;17.60;21.61;97591.93;1791168;80;21175;-79
2021/04/11 11:43:59;;;;;;;8.45;4.53;;;;;;;17.65;21.12;97592.31;1791128;80;21209;-78
2021/04/11 11:47:08;;;;;;;6.25;3.55;;;;;;;17.59;21.41;97584.92;1772044;80;21568;-79
2021/04/11 11:49:46;;;;;;;5.60;2.40;;;;;;;17.61;21.18;97589.12;1792402;80;21136;-79
2021/04/11 11:52:43;;;;;;;5.92;3.45;;;;;;;17.59;21.97;97569.78;1793745;79;21144;-79
2021/04/11 11:55:24;;;;;;;6.60;4.03;;;;;;;17.63;22.15;97571.64;1793374;80;21328;-79
2021/04/11 11:58:21;;;;;;;6.72;3.17;;;;;;;17.75;21.99;97569.06;1793383;80;21148;-81
2021/04/11 12:00:59;;;;;;;6.87;3.52;;;;;;;17.85;22.01;97562.27;1805923;79;21136;-79
2021/04/11 12:03:34;;;;;;;5.67;3.45;;;;;;;17.75;21.17;97566.88;1753327;82;21144;-79
2021/04/11 12:06:30;;;;;;;10.53;4.22;;;;;;;17.82;22.42;97560.42;1735428;82;21132;-80
2021/04/11 12:09:19;;;;;;;9.98;3.77;;;;;;;17.88;21.65;97555.78;1702533;82;21200;-79
2021/04/11 12:12:01;;;;;;;6.17;3.40;;;;;;;17.96;22.06;97562.52;1752714;82;21144;-79
2021/04/11 12:15:07;;;;;;;7.05;3.85;;;;;;;17.89;21.82;97563.64;1748424;82;21136;-79
2021/04/11 12:17:54;;;;;;;6.15;3.75;;;;;;;17.89;22.11;97554.78;1727668;82;21125;-79
2021/04/11 12:21:01;;;;;;;7.47;4.00;;;;;;;17.97;21.61;97556.70;1737679;82;21197;-79
2021/04/11 12:23:46;;;;;;;6.20;4.30;;;;;;;18.08;21.81;97557.25;1721982;83;21179;-80
2021/04/11 12:26:20;;;;;;;8.03;5.12;;;;;;;17.97;21.72;97545.53;1737700;82;21585;-80
2021/04/11 12:28:50;;;;;;;7.67;4.30;;;;;;;17.90;21.75;97543.12;1695553;83;21137;-80
2021/04/11 12:31:43;;;;;;;7.70;4.08;;;;;;;17.92;22.28;97535.30;1737911;82;21143;-78
2021/04/11 12:34:59;;;;;;;7.50;3.92;;;;;;;18.08;22.58;97531.09;1746415;82;21160;-79
2021/04/11 12:37:48;;;;;;;11.60;4.72;;;;;;;18.19;22.68;97527.29;1736999;82;21170;-79
2021/04/11 12:40:32;;;;;;;6.05;4.47;;;;;;;18.23;22.62;97533.48;1733505;83;21190;-78
2021/04/11 12:43:23;;;;;;;7.00;4.50;;;;;;;18.09;22.50;97526.09;1733454;83;21163;-78
2021/04/11 12:46:14;;;;;;;8.98;3.83;;;;;;;18.06;22.36;97526.41;1719106;83;21174;-78
2021/04/11 12:48:56;;;;;;;7.55;3.83;;;;;;;18.02;22.09;97513.89;1709099;83;21135;-79
2021/04/11 12:52:06;;;;;;;9.23;4.45;;;;;;;18.14;22.69;97505.61;1733434;83;21151;-79